Chapleau Airport


Codes: CYLD/YLD
Name: Chapleau Airport
City: Chapleau
Country: Canada
Elevation: 1470 ft.
Wikipedia:

Photos at Chapleau Airport


   Photos courtesy of SpottingLog. You can add your own sightings and photos by signing up for a free trial today.



No photos found.

Weather at Chapleau Airport


Time (UTC)DescriptionTempratureWindCloud coverageVisibilityPressureHumidity
23-May-2024 21:00Broken Clouds14°C18 mph, W52%10000m1006hPa42%
24-May-2024 00:00Broken Clouds10°C16 mph, W57%10000m1007hPa56%
24-May-2024 03:00Overcast Clouds5°C11 mph, NW100%10000m1010hPa79%
24-May-2024 06:00Overcast Clouds4°C9 mph, W100%10000m1011hPa84%
24-May-2024 09:00Overcast Clouds4°C9 mph, W92%10000m1012hPa85%
24-May-2024 12:00Overcast Clouds4°C7 mph, NW96%10000m1014hPa88%
24-May-2024 15:00Overcast Clouds7°C4 mph, NW100%10000m1015hPa77%
24-May-2024 18:00Overcast Clouds13°C7 mph, NE98%10000m1013hPa54%
24-May-2024 21:00Scattered Clouds15°C9 mph, NE33%10000m1012hPa45%
25-May-2024 00:00Broken Clouds12°C9 mph, E65%10000m1012hPa63%
25-May-2024 03:00Broken Clouds7°C9 mph, E55%10000m1012hPa83%
25-May-2024 06:00Broken Clouds5°C9 mph, SE77%10000m1011hPa89%
25-May-2024 09:00Light Rain6°C9 mph, SE100%10000m1009hPa90%
25-May-2024 12:00Light Rain6°C11 mph, SE100%10000m1008hPa93%
25-May-2024 15:00Light Rain7°C9 mph, SE100%9674m1006hPa96%
25-May-2024 18:00Light Rain8°C4 mph, SE100%10000m1008hPa97%
25-May-2024 21:00Overcast Clouds10°C7 mph, SW100%10000m1008hPa94%
26-May-2024 00:00Overcast Clouds8°C9 mph, W100%10000m1010hPa87%
26-May-2024 03:00Overcast Clouds8°C7 mph, W99%10000m1013hPa92%
26-May-2024 06:00Overcast Clouds6°C4 mph, W99%10000m1014hPa97%
26-May-2024 09:00Broken Clouds5°C2 mph, N80%10000m1014hPa97%
26-May-2024 12:00Broken Clouds9°C2 mph, NW71%10000m1016hPa83%
26-May-2024 15:00Scattered Clouds16°C4 mph, NE43%10000m1013hPa51%
26-May-2024 18:00Broken Clouds20°C4 mph, E73%10000m1011hPa42%
26-May-2024 21:00Overcast Clouds20°C9 mph, E100%10000m1010hPa42%
27-May-2024 00:00Overcast Clouds15°C4 mph, E100%10000m1009hPa66%
27-May-2024 03:00Overcast Clouds14°C9 mph, E100%10000m1007hPa63%
27-May-2024 06:00Overcast Clouds13°C11 mph, NE100%10000m1005hPa73%
27-May-2024 09:00Overcast Clouds12°C9 mph, E100%10000m1003hPa81%
27-May-2024 12:00Light Rain11°C11 mph, E100%10000m1001hPa96%
27-May-2024 15:00Overcast Clouds12°C13 mph, NE100%10000m997hPa93%
27-May-2024 18:00Moderate Rain12°C11 mph, NE100%1791m995hPa98%
27-May-2024 21:00Light Rain12°C9 mph, NE100%680m994hPa98%
28-May-2024 00:00Light Rain11°C2 mph, S100%7175m995hPa99%
28-May-2024 03:00Light Rain10°C4 mph, NW100%2218m995hPa99%
28-May-2024 06:00Light Rain10°C13 mph, N100%10000m996hPa97%
28-May-2024 09:00Moderate Rain9°C11 mph, NW100%9643m997hPa97%
28-May-2024 12:00Light Rain8°C13 mph, NW100%9528m1000hPa97%
28-May-2024 15:00Overcast Clouds9°C11 mph, NW100%10000m1002hPa95%
28-May-2024 18:00Light Rain9°C11 mph, NW100%10000m1004hPa91%